Time;durP1;ratioP1;P1;durP2;ratioP2;P2;SDS_P1;SDS_P2;PMS_P1;PMS_P2;Temp;Humidity;BMP_temperature;BMP_pressure;BME280_temperature;BME280_humidity;BME280_pressure;Samples;Min_cycle;Max_cycle;Signal;HPM_P1;HPM_P2
2023/12/12 00:01:34;;;;;;;17.75;10.18;;;;;;;;;;5014365;28;25064;-71
2023/12/12 00:04:00;;;;;;;14.10;9.10;;;;;;;;;;5018705;28;25065;-70
2023/12/12 00:06:29;;;;;;;19.52;10.63;;;;;;;;;;5015139;28;25066;-71
2023/12/12 00:08:55;;;;;;;16.65;10.48;;;;;;;;;;5012003;28;25068;-72
2023/12/12 00:11:21;;;;;;;18.38;11.50;;;;;;;;;;5012925;28;25066;-71
2023/12/12 00:13:47;;;;;;;26.65;12.30;;;;;;;;;;5014088;28;25169;-71
2023/12/12 00:16:13;;;;;;;17.67;12.00;;;;;;;;;;5014720;28;25161;-72
2023/12/12 00:18:39;;;;;;;20.15;13.07;;;;;;;;;;5015577;28;25155;-70
2023/12/12 00:21:06;;;;;;;27.65;13.05;;;;;;;;;;5014531;28;25079;-71
2023/12/12 00:23:32;;;;;;;24.85;13.60;;;;;;;;;;5014882;28;25060;-71
2023/12/12 00:25:58;;;;;;;21.38;13.55;;;;;;;;;;5016651;28;25085;-71
2023/12/12 00:28:25;;;;;;;19.85;13.07;;;;;;;;;;5012781;28;25051;-71
2023/12/12 00:30:51;;;;;;;20.10;13.32;;;;;;;;;;5015012;28;25053;-71
2023/12/12 00:33:17;;;;;;;24.17;14.48;;;;;;;;;;5019066;28;25112;-72
2023/12/12 00:35:43;;;;;;;24.65;15.18;;;;;;;;;;5017403;28;25138;-70
2023/12/12 00:38:09;;;;;;;23.95;15.00;;;;;;;;;;5012729;28;25047;-71
2023/12/12 00:40:35;;;;;;;28.35;15.60;;;;;;;;;;5014171;28;25059;-71
2023/12/12 00:43:01;;;;;;;29.73;16.40;;;;;;;;;;5014412;28;25065;-71
2023/12/12 00:45:27;;;;;;;22.85;14.82;;;;;;;;;;5012244;28;25152;-69
2023/12/12 00:47:53;;;;;;;21.08;16.08;;;;;;;;;;5014371;28;25089;-71
2023/12/12 00:50:19;;;;;;;24.95;15.65;;;;;;;;;;5013930;28;25084;-70
2023/12/12 00:52:45;;;;;;;29.80;17.10;;;;;;;;;;5014342;28;25109;-70
2023/12/12 00:55:11;;;;;;;29.58;16.60;;;;;;;;;;5014300;28;25108;-71
2023/12/12 00:57:37;;;;;;;40.53;18.50;;;;;;;;;;5012987;28;25096;-69
2023/12/12 01:00:03;;;;;;;31.65;17.63;;;;;;;;;;5015679;28;25076;-71
2023/12/12 01:02:29;;;;;;;29.23;18.17;;;;;;;;;;5013963;28;25139;-71
2023/12/12 01:04:55;;;;;;;29.45;17.02;;;;;;;;;;5014450;28;25129;-72
2023/12/12 01:07:21;;;;;;;31.63;18.20;;;;;;;;;;5014716;28;25087;-71
2023/12/12 01:09:47;;;;;;;32.60;18.67;;;;;;;;;;5015326;28;25140;-71
2023/12/12 01:12:13;;;;;;;34.40;18.55;;;;;;;;;;5010042;28;25062;-70
2023/12/12 01:14:39;;;;;;;34.47;19.40;;;;;;;;;;5010891;28;25059;-71
2023/12/12 01:17:05;;;;;;;29.08;18.48;;;;;;;;;;5013715;28;25121;-70
2023/12/12 01:19:31;;;;;;;26.88;17.88;;;;;;;;;;5013815;28;25061;-72
2023/12/12 01:21:57;;;;;;;34.15;19.40;;;;;;;;;;5013169;28;25071;-72
2023/12/12 01:24:23;;;;;;;40.78;19.92;;;;;;;;;;5012781;28;25105;-71
2023/12/12 01:26:49;;;;;;;31.85;19.70;;;;;;;;;;5006894;28;25058;-72
2023/12/12 01:29:17;;;;;;;34.85;20.23;;;;;;;;;;5009858;28;25066;-71
2023/12/12 01:31:43;;;;;;;39.00;20.20;;;;;;;;;;5005930;28;25103;-71
2023/12/12 01:34:09;;;;;;;33.90;20.30;;;;;;;;;;5010560;28;25142;-72
2023/12/12 01:36:35;;;;;;;33.33;20.88;;;;;;;;;;5008654;28;25112;-71
2023/12/12 01:39:01;;;;;;;34.38;22.88;;;;;;;;;;5008361;28;25053;-72
2023/12/12 01:41:27;;;;;;;30.45;22.10;;;;;;;;;;5010363;28;25081;-71
2023/12/12 01:43:53;;;;;;;33.67;22.52;;;;;;;;;;5011209;28;25080;-71
2023/12/12 01:46:20;;;;;;;38.50;23.83;;;;;;;;;;5012183;28;25077;-71
2023/12/12 01:48:47;;;;;;;36.38;25.92;;;;;;;;;;5015238;28;25049;-72
2023/12/12 01:51:13;;;;;;;42.60;26.83;;;;;;;;;;5011320;28;25108;-72
2023/12/12 01:53:41;;;;;;;36.65;26.02;;;;;;;;;;5003480;28;25055;-71
2023/12/12 01:56:07;;;;;;;41.38;27.70;;;;;;;;;;5010112;28;25082;-70
2023/12/12 01:58:34;;;;;;;42.10;28.15;;;;;;;;;;5010089;28;25057;-70
2023/12/12 02:01:01;;;;;;;47.42;28.52;;;;;;;;;;5010868;28;25079;-71
2023/12/12 02:03:28;;;;;;;45.60;28.35;;;;;;;;;;5006884;28;25083;-72
2023/12/12 02:05:59;;;;;;;41.42;30.60;;;;;;;;;;5002926;28;25069;-71
2023/12/12 02:08:28;;;;;;;47.83;29.73;;;;;;;;;;5010485;28;25076;-73
2023/12/12 02:10:54;;;;;;;53.50;30.10;;;;;;;;;;5005676;28;25053;-72
2023/12/12 02:13:20;;;;;;;40.67;28.33;;;;;;;;;;5011884;28;25100;-71
2023/12/12 02:15:47;;;;;;;45.72;28.77;;;;;;;;;;5002278;28;25068;-71
2023/12/12 02:18:15;;;;;;;39.83;29.05;;;;;;;;;;5014524;28;25104;-73
2023/12/12 02:20:42;;;;;;;49.78;29.63;;;;;;;;;;5009165;28;25098;-71
2023/12/12 02:23:08;;;;;;;46.70;27.98;;;;;;;;;;5015366;28;25053;-71
2023/12/12 02:25:34;;;;;;;43.85;29.58;;;;;;;;;;5013418;28;25051;-71
2023/12/12 02:28:00;;;;;;;51.22;28.67;;;;;;;;;;5016786;28;25077;-72
2023/12/12 02:30:26;;;;;;;50.42;30.20;;;;;;;;;;5020086;28;25053;-72
2023/12/12 02:32:52;;;;;;;40.97;28.75;;;;;;;;;;5022623;28;25161;-72
2023/12/12 02:35:18;;;;;;;50.60;28.73;;;;;;;;;;5023169;28;25061;-71
2023/12/12 02:37:44;;;;;;;46.08;29.15;;;;;;;;;;5021534;28;25084;-71
2023/12/12 02:40:10;;;;;;;39.28;28.67;;;;;;;;;;5016163;28;25081;-72
2023/12/12 02:42:36;;;;;;;46.75;29.05;;;;;;;;;;5020118;28;25104;-72
2023/12/12 02:45:02;;;;;;;41.97;28.08;;;;;;;;;;5023776;28;25089;-71
2023/12/12 02:47:28;;;;;;;58.90;31.55;;;;;;;;;;5018099;28;25054;-72
2023/12/12 02:49:54;;;;;;;61.42;32.10;;;;;;;;;;5024192;28;25082;-71
2023/12/12 02:52:22;;;;;;;54.70;30.65;;;;;;;;;;5024776;28;25094;-72
2023/12/12 02:54:48;;;;;;;49.65;31.02;;;;;;;;;;5022929;28;25096;-71
2023/12/12 02:57:13;;;;;;;51.65;31.13;;;;;;;;;;5024107;28;25108;-73
2023/12/12 02:59:39;;;;;;;50.70;30.25;;;;;;;;;;5020322;28;25066;-71
2023/12/12 03:02:05;;;;;;;48.90;30.15;;;;;;;;;;5026700;28;25085;-71
2023/12/12 03:04:31;;;;;;;45.60;32.63;;;;;;;;;;5023548;28;25074;-71
2023/12/12 03:06:57;;;;;;;50.88;30.48;;;;;;;;;;5021419;28;25086;-71
2023/12/12 03:09:23;;;;;;;36.05;27.20;;;;;;;;;;5019090;28;25080;-72
2023/12/12 03:11:51;;;;;;;59.42;35.50;;;;;;;;;;5021861;28;25069;-70
2023/12/12 03:14:17;;;;;;;54.63;33.28;;;;;;;;;;5020083;28;25077;-71
2023/12/12 03:16:43;;;;;;;46.88;32.03;;;;;;;;;;5019772;28;25085;-72
2023/12/12 03:19:10;;;;;;;64.25;35.10;;;;;;;;;;5020015;28;25164;-70
2023/12/12 03:21:36;;;;;;;62.70;35.72;;;;;;;;;;5019240;28;25134;-71
2023/12/12 03:24:02;;;;;;;64.43;36.35;;;;;;;;;;5019248;28;25060;-72
2023/12/12 03:26:28;;;;;;;67.35;35.60;;;;;;;;;;5023737;28;25140;-72
2023/12/12 03:28:53;;;;;;;59.50;33.80;;;;;;;;;;5017492;28;25094;-71
2023/12/12 03:31:19;;;;;;;57.42;36.22;;;;;;;;;;5009491;28;25054;-72
2023/12/12 03:33:45;;;;;;;63.08;37.28;;;;;;;;;;5007027;28;25119;-73
2023/12/12 03:36:12;;;;;;;61.75;35.30;;;;;;;;;;5004705;28;25063;-71
2023/12/12 03:38:37;;;;;;;70.43;38.40;;;;;;;;;;5006361;28;25118;-72
2023/12/12 03:41:03;;;;;;;61.45;36.55;;;;;;;;;;5006670;28;25064;-72
2023/12/12 03:43:29;;;;;;;66.40;36.25;;;;;;;;;;5004585;28;25058;-72
2023/12/12 03:45:55;;;;;;;71.28;36.90;;;;;;;;;;5006390;28;25068;-72
2023/12/12 03:48:21;;;;;;;63.65;37.60;;;;;;;;;;5007880;28;25083;-71
2023/12/12 03:50:49;;;;;;;59.15;34.00;;;;;;;;;;5003048;28;25066;-72
2023/12/12 03:53:15;;;;;;;59.97;35.72;;;;;;;;;;5005178;28;25080;-72
2023/12/12 03:55:41;;;;;;;68.88;34.40;;;;;;;;;;5006569;28;25109;-71
2023/12/12 03:58:07;;;;;;;56.80;35.13;;;;;;;;;;5008231;28;25066;-72
2023/12/12 04:00:33;;;;;;;56.15;32.60;;;;;;;;;;5005406;28;25072;-72
2023/12/12 04:02:59;;;;;;;62.58;36.35;;;;;;;;;;5006375;28;25154;-72
2023/12/12 04:05:25;;;;;;;55.65;34.83;;;;;;;;;;5003066;28;25068;-72
2023/12/12 04:07:51;;;;;;;71.72;37.25;;;;;;;;;;5006335;28;25065;-73
2023/12/12 04:10:18;;;;;;;52.08;31.52;;;;;;;;;;5007675;28;25074;-72
2023/12/12 04:12:44;;;;;;;54.65;34.95;;;;;;;;;;5005988;28;25078;-73
2023/12/12 04:15:10;;;;;;;74.93;36.88;;;;;;;;;;5006217;28;25096;-71
2023/12/12 04:17:36;;;;;;;63.92;36.83;;;;;;;;;;5006301;28;25084;-72
2023/12/12 04:20:02;;;;;;;72.03;38.05;;;;;;;;;;5000667;28;25071;-72
2023/12/12 04:22:28;;;;;;;76.50;37.15;;;;;;;;;;5006017;28;25159;-72
2023/12/12 04:24:54;;;;;;;80.85;37.33;;;;;;;;;;5005238;28;25107;-73
2023/12/12 04:27:20;;;;;;;67.53;38.47;;;;;;;;;;5006406;28;25067;-72
2023/12/12 04:29:47;;;;;;;73.28;38.15;;;;;;;;;;5005991;28;25134;-71
2023/12/12 04:32:13;;;;;;;67.05;38.55;;;;;;;;;;5014865;28;25079;-71
2023/12/12 04:34:39;;;;;;;79.13;42.80;;;;;;;;;;5011272;28;25095;-71
2023/12/12 04:37:05;;;;;;;78.47;39.40;;;;;;;;;;5007051;28;25079;-70
2023/12/12 04:39:31;;;;;;;82.45;40.47;;;;;;;;;;5006580;28;25048;-71
2023/12/12 04:41:57;;;;;;;74.57;37.88;;;;;;;;;;5005996;28;25060;-71
2023/12/12 04:44:23;;;;;;;71.05;39.33;;;;;;;;;;5002665;28;25164;-71
2023/12/12 04:46:49;;;;;;;76.70;38.45;;;;;;;;;;5005617;28;25064;-72
2023/12/12 04:49:16;;;;;;;57.42;35.15;;;;;;;;;;5006912;28;25125;-71
2023/12/12 04:51:42;;;;;;;70.25;37.88;;;;;;;;;;5006793;28;25082;-72
2023/12/12 04:54:08;;;;;;;68.43;36.22;;;;;;;;;;4999600;28;25082;-72
2023/12/12 04:56:34;;;;;;;78.43;37.30;;;;;;;;;;5005589;28;25058;-72
2023/12/12 04:59:00;;;;;;;68.93;34.72;;;;;;;;;;5008964;28;25081;-72
2023/12/12 05:01:27;;;;;;;74.20;35.30;;;;;;;;;;5004159;28;25094;-72
2023/12/12 05:03:53;;;;;;;69.90;34.05;;;;;;;;;;5003610;28;25130;-71
2023/12/12 05:06:19;;;;;;;78.88;36.72;;;;;;;;;;5003337;28;25078;-72
2023/12/12 05:08:45;;;;;;;78.35;34.60;;;;;;;;;;5004839;28;25067;-72
2023/12/12 05:11:13;;;;;;;80.22;35.67;;;;;;;;;;5004172;28;25086;-72
2023/12/12 05:13:40;;;;;;;77.05;35.35;;;;;;;;;;5006054;28;25071;-71
2023/12/12 05:16:09;;;;;;;84.10;37.08;;;;;;;;;;5009964;28;25134;-72
2023/12/12 05:18:35;;;;;;;71.20;34.72;;;;;;;;;;5005292;28;25059;-73
2023/12/12 05:21:01;;;;;;;82.45;34.30;;;;;;;;;;5005066;28;25085;-73
2023/12/12 05:23:27;;;;;;;54.92;27.25;;;;;;;;;;5003018;28;25072;-72
2023/12/12 05:25:53;;;;;;;66.45;32.70;;;;;;;;;;4999127;28;25139;-71
2023/12/12 05:28:20;;;;;;;69.03;36.38;;;;;;;;;;5001881;28;25074;-72
2023/12/12 05:30:46;;;;;;;76.88;35.97;;;;;;;;;;5004102;28;25190;-72
2023/12/12 05:33:12;;;;;;;80.30;43.95;;;;;;;;;;5002135;28;25155;-72
2023/12/12 05:35:38;;;;;;;60.13;40.90;;;;;;;;;;5004773;28;25120;-72
2023/12/12 05:38:06;;;;;;;73.07;47.88;;;;;;;;;;5005850;28;25127;-71
2023/12/12 05:40:32;;;;;;;79.75;46.67;;;;;;;;;;5003573;28;25062;-72
2023/12/12 05:42:58;;;;;;;90.00;48.00;;;;;;;;;;5000205;28;25074;-72
2023/12/12 05:45:24;;;;;;;87.78;44.45;;;;;;;;;;5002663;28;25067;-72
2023/12/12 05:47:50;;;;;;;68.78;36.40;;;;;;;;;;5005413;28;25081;-73
2023/12/12 05:50:16;;;;;;;73.53;41.47;;;;;;;;;;5006055;28;25140;-72
2023/12/12 05:52:42;;;;;;;72.47;37.63;;;;;;;;;;5007498;28;25061;-72
2023/12/12 05:55:08;;;;;;;70.07;39.05;;;;;;;;;;5001476;28;25067;-72
2023/12/12 05:57:35;;;;;;;78.07;43.47;;;;;;;;;;5004740;28;25053;-73
2023/12/12 06:00:01;;;;;;;85.18;43.17;;;;;;;;;;5001519;28;25134;-73
2023/12/12 06:02:28;;;;;;;72.65;43.03;;;;;;;;;;5005072;28;25062;-71
2023/12/12 06:04:54;;;;;;;79.00;41.72;;;;;;;;;;5004616;28;25056;-73
2023/12/12 06:07:20;;;;;;;70.53;39.17;;;;;;;;;;5004643;28;25063;-72
2023/12/12 06:09:46;;;;;;;83.53;42.40;;;;;;;;;;5002614;28;25080;-73
2023/12/12 06:12:12;;;;;;;73.35;44.35;;;;;;;;;;5005420;28;25097;-74
2023/12/12 06:14:39;;;;;;;78.25;37.40;;;;;;;;;;5004995;28;25157;-73
2023/12/12 06:17:06;;;;;;;90.65;44.40;;;;;;;;;;5004361;28;25174;-73
2023/12/12 06:19:32;;;;;;;76.75;41.22;;;;;;;;;;5002671;28;25075;-72
2023/12/12 06:21:58;;;;;;;67.45;39.22;;;;;;;;;;5005110;28;25099;-73
2023/12/12 06:24:24;;;;;;;85.00;45.55;;;;;;;;;;5001304;28;25085;-73
2023/12/12 06:26:50;;;;;;;75.18;40.88;;;;;;;;;;5004324;28;25075;-73
2023/12/12 06:29:16;;;;;;;80.18;44.33;;;;;;;;;;5008455;28;25067;-74
2023/12/12 06:31:42;;;;;;;94.55;42.47;;;;;;;;;;5007152;28;25154;-74
2023/12/12 06:34:10;;;;;;;93.10;45.20;;;;;;;;;;5003576;28;25078;-74
2023/12/12 06:36:36;;;;;;;93.90;45.42;;;;;;;;;;4999372;28;25094;-74
2023/12/12 06:39:03;;;;;;;88.47;40.78;;;;;;;;;;5004558;28;25090;-73
2023/12/12 06:41:29;;;;;;;94.38;43.08;;;;;;;;;;5004690;28;25066;-73
2023/12/12 06:43:55;;;;;;;97.03;43.63;;;;;;;;;;5002931;28;25060;-73
2023/12/12 06:46:21;;;;;;;91.93;42.83;;;;;;;;;;5003333;28;25069;-75
2023/12/12 06:48:47;;;;;;;93.97;43.15;;;;;;;;;;4999408;28;25053;-75
2023/12/12 06:51:13;;;;;;;91.78;44.72;;;;;;;;;;5003235;28;25129;-73
2023/12/12 06:53:39;;;;;;;83.15;40.80;;;;;;;;;;5004756;28;25069;-74
2023/12/12 06:56:05;;;;;;;98.10;41.88;;;;;;;;;;5000969;28;25056;-74
2023/12/12 06:58:32;;;;;;;82.65;40.85;;;;;;;;;;5001665;28;25054;-74
2023/12/12 07:00:58;;;;;;;87.20;42.13;;;;;;;;;;5006868;28;25083;-74
2023/12/12 07:03:24;;;;;;;104.22;44.30;;;;;;;;;;5002659;28;25068;-74
2023/12/12 07:05:51;;;;;;;87.43;42.83;;;;;;;;;;5001000;28;25112;-76
2023/12/12 07:08:18;;;;;;;76.57;44.38;;;;;;;;;;5007395;28;25065;-74
2023/12/12 07:10:44;;;;;;;89.15;42.83;;;;;;;;;;5009245;28;25061;-74
2023/12/12 07:13:10;;;;;;;74.30;41.13;;;;;;;;;;5009311;28;25068;-73
2023/12/12 07:15:36;;;;;;;87.57;40.95;;;;;;;;;;5019980;28;25047;-72
2023/12/12 07:18:02;;;;;;;89.32;40.85;;;;;;;;;;5015342;28;25058;-73
2023/12/12 07:20:28;;;;;;;80.93;39.08;;;;;;;;;;5004451;28;25067;-73
2023/12/12 07:22:55;;;;;;;81.28;38.50;;;;;;;;;;5004291;28;25062;-74
2023/12/12 07:25:22;;;;;;;65.68;35.05;;;;;;;;;;5008413;28;25068;-74
2023/12/12 07:27:48;;;;;;;61.75;35.92;;;;;;;;;;5009827;28;25078;-75
2023/12/12 07:30:14;;;;;;;91.60;39.55;;;;;;;;;;5007550;28;25067;-74
2023/12/12 07:32:40;;;;;;;81.47;39.03;;;;;;;;;;5006573;28;25160;-75
2023/12/12 07:35:06;;;;;;;72.45;37.65;;;;;;;;;;5021402;28;25049;-74
2023/12/12 07:37:32;;;;;;;83.30;39.30;;;;;;;;;;5018645;28;25098;-74
2023/12/12 07:39:58;;;;;;;76.72;37.00;;;;;;;;;;5021966;28;25065;-75
2023/12/12 07:42:24;;;;;;;73.93;37.60;;;;;;;;;;5020655;28;25040;-74
2023/12/12 07:44:50;;;;;;;84.38;36.85;;;;;;;;;;5018559;28;25059;-72
2023/12/12 07:47:17;;;;;;;75.57;36.17;;;;;;;;;;5023108;28;25060;-74
2023/12/12 07:49:43;;;;;;;69.22;36.30;;;;;;;;;;5032013;28;25091;-74
2023/12/12 07:52:08;;;;;;;80.82;37.03;;;;;;;;;;5022667;28;25077;-74
2023/12/12 07:54:36;;;;;;;77.05;35.60;;;;;;;;;;5021083;28;25069;-74
2023/12/12 07:57:02;;;;;;;66.32;35.30;;;;;;;;;;5022657;28;25074;-75
2023/12/12 07:59:28;;;;;;;84.97;35.42;;;;;;;;;;5017530;28;25088;-74
2023/12/12 08:01:54;;;;;;;76.05;34.78;;;;;;;;;;5022376;28;25071;-75
2023/12/12 08:04:20;;;;;;;69.00;32.22;;;;;;;;;;5022626;28;25088;-75
2023/12/12 08:06:46;;;;;;;68.70;31.83;;;;;;;;;;5020479;28;25140;-74
2023/12/12 08:09:12;;;;;;;70.05;32.75;;;;;;;;;;5016226;28;25059;-74
2023/12/12 08:11:39;;;;;;;66.05;32.33;;;;;;;;;;5011893;28;25084;-73
2023/12/12 08:14:05;;;;;;;70.93;32.15;;;;;;;;;;5014438;28;25091;-74
2023/12/12 08:16:32;;;;;;;78.18;33.05;;;;;;;;;;5006168;28;25089;-74
2023/12/12 08:18:58;;;;;;;69.85;33.33;;;;;;;;;;5003519;28;25147;-75
2023/12/12 08:21:24;;;;;;;61.28;30.75;;;;;;;;;;5007948;28;25052;-75
2023/12/12 08:23:50;;;;;;;53.65;29.38;;;;;;;;;;5005138;28;25077;-74
2023/12/12 08:26:16;;;;;;;66.45;33.38;;;;;;;;;;5004318;28;25157;-76
2023/12/12 08:28:42;;;;;;;67.10;34.38;;;;;;;;;;5007136;28;25150;-74
2023/12/12 08:31:08;;;;;;;68.15;32.45;;;;;;;;;;5008297;28;25074;-74
2023/12/12 08:33:34;;;;;;;45.58;30.13;;;;;;;;;;5004154;28;25059;-74
2023/12/12 08:36:00;;;;;;;60.92;32.05;;;;;;;;;;5002788;28;25070;-74
2023/12/12 08:38:26;;;;;;;57.85;33.88;;;;;;;;;;5006751;28;25071;-73
2023/12/12 08:40:52;;;;;;;64.05;34.63;;;;;;;;;;5004986;28;25060;-74
2023/12/12 08:43:18;;;;;;;68.35;33.45;;;;;;;;;;5005070;28;25088;-73
2023/12/12 08:45:44;;;;;;;69.22;33.63;;;;;;;;;;5001851;28;25067;-72
2023/12/12 08:48:10;;;;;;;64.07;35.95;;;;;;;;;;5000784;28;25090;-72
2023/12/12 08:50:36;;;;;;;69.70;32.53;;;;;;;;;;5004329;28;25156;-72
2023/12/12 08:53:03;;;;;;;59.67;32.78;;;;;;;;;;5007191;28;25060;-71
2023/12/12 08:55:29;;;;;;;61.25;34.17;;;;;;;;;;5004001;28;25073;-71
2023/12/12 08:57:55;;;;;;;77.95;34.15;;;;;;;;;;5004151;28;25071;-72
2023/12/12 09:00:21;;;;;;;62.08;32.67;;;;;;;;;;5004323;28;25062;-72
2023/12/12 09:02:47;;;;;;;56.90;32.70;;;;;;;;;;5004604;28;25140;-73
2023/12/12 09:05:13;;;;;;;55.92;33.30;;;;;;;;;;4999522;28;25057;-71
2023/12/12 09:07:40;;;;;;;69.07;34.38;;;;;;;;;;5003907;28;25134;-72
2023/12/12 09:10:06;;;;;;;63.50;32.75;;;;;;;;;;5005694;28;25060;-73
2023/12/12 09:12:32;;;;;;;76.13;33.55;;;;;;;;;;5005031;28;25055;-71
2023/12/12 09:14:59;;;;;;;51.55;31.65;;;;;;;;;;5005093;28;25136;-72
2023/12/12 09:17:25;;;;;;;49.58;30.27;;;;;;;;;;5003547;28;25100;-71
2023/12/12 09:19:51;;;;;;;48.33;29.60;;;;;;;;;;5002558;28;25055;-72
2023/12/12 09:22:17;;;;;;;59.72;29.73;;;;;;;;;;5020403;28;25064;-72
2023/12/12 09:24:43;;;;;;;46.67;29.88;;;;;;;;;;5004353;28;25066;-72
2023/12/12 09:27:08;;;;;;;50.45;29.52;;;;;;;;;;4999355;28;25039;-72
2023/12/12 09:29:34;;;;;;;52.10;31.63;;;;;;;;;;5000382;28;25094;-73
2023/12/12 09:32:00;;;;;;;45.90;28.92;;;;;;;;;;5001570;28;25074;-73
2023/12/12 09:34:26;;;;;;;54.40;30.95;;;;;;;;;;5003588;28;25081;-72
2023/12/12 09:36:52;;;;;;;48.88;30.92;;;;;;;;;;5004498;28;25051;-72
2023/12/12 09:39:18;;;;;;;52.95;29.85;;;;;;;;;;5004834;28;25163;-73
2023/12/12 09:41:49;;;;;;;53.47;30.30;;;;;;;;;;5003327;28;25179;-73
2023/12/12 09:44:16;;;;;;;49.83;30.58;;;;;;;;;;4997562;28;25075;-73
2023/12/12 09:46:43;;;;;;;46.80;30.23;;;;;;;;;;5018186;28;25079;-73
2023/12/12 09:49:11;;;;;;;44.58;29.90;;;;;;;;;;5004146;28;25062;-72
2023/12/12 09:51:38;;;;;;;56.25;30.40;;;;;;;;;;5003129;28;25136;-73
2023/12/12 09:54:07;;;;;;;44.97;29.58;;;;;;;;;;5003643;28;25155;-72
2023/12/12 09:56:34;;;;;;;51.50;30.98;;;;;;;;;;5004318;28;25046;-72
2023/12/12 09:59:00;;;;;;;39.63;30.73;;;;;;;;;;5005744;28;25134;-72
2023/12/12 10:01:26;;;;;;;43.10;29.33;;;;;;;;;;5009250;28;25080;-73
2023/12/12 10:03:53;;;;;;;48.80;30.98;;;;;;;;;;5003957;28;25054;-72
2023/12/12 10:06:19;;;;;;;53.75;31.98;;;;;;;;;;5015070;28;25153;-72
2023/12/12 10:08:45;;;;;;;56.00;31.17;;;;;;;;;;5002451;28;25056;-71
2023/12/12 10:11:11;;;;;;;44.22;30.10;;;;;;;;;;5008360;28;25052;-72
2023/12/12 10:13:50;;;;;;;44.65;28.85;;;;;;;;;;5002428;28;25073;-72
2023/12/12 10:16:17;;;;;;;44.17;31.35;;;;;;;;;;4999041;28;25083;-71
2023/12/12 10:18:46;;;;;;;52.50;31.13;;;;;;;;;;5007179;28;25066;-71
2023/12/12 10:21:30;;;;;;;40.72;29.65;;;;;;;;;;5001922;28;25135;-71
2023/12/12 10:23:56;;;;;;;39.15;30.45;;;;;;;;;;5004711;28;25082;-72
2023/12/12 10:26:29;;;;;;;40.67;29.80;;;;;;;;;;5001845;28;25086;-72
2023/12/12 10:28:55;;;;;;;;;;;;;;;;;;4999991;28;25056;-72
2023/12/12 10:31:22;;;;;;;39.83;27.58;;;;;;;;;;5003654;28;25147;-72
2023/12/12 10:33:48;;;;;;;40.85;28.10;;;;;;;;;;5005346;28;25085;-73
2023/12/12 10:36:14;;;;;;;37.60;27.17;;;;;;;;;;5004375;28;25097;-72
2023/12/12 10:38:40;;;;;;;39.30;27.20;;;;;;;;;;5005014;28;25188;-72
2023/12/12 10:41:10;;;;;;;36.45;26.70;;;;;;;;;;5002948;28;25104;-71
2023/12/12 10:43:40;;;;;;;37.63;26.40;;;;;;;;;;5009409;28;25081;-72
2023/12/12 10:46:06;;;;;;;38.85;26.83;;;;;;;;;;5004853;28;25055;-72
2023/12/12 10:48:32;;;;;;;39.38;26.38;;;;;;;;;;5005789;28;25148;-72
2023/12/12 10:51:00;;;;;;;43.40;28.52;;;;;;;;;;5010092;28;25079;-72
2023/12/12 10:53:27;;;;;;;42.60;28.52;;;;;;;;;;5001787;28;25067;-73
2023/12/12 10:55:55;;;;;;;36.20;26.98;;;;;;;;;;5007135;28;25061;-72
2023/12/12 10:58:22;;;;;;;30.00;26.73;;;;;;;;;;5004559;28;25096;-70
2023/12/12 11:00:48;;;;;;;38.88;28.17;;;;;;;;;;5007555;28;25063;-72
2023/12/12 11:03:15;;;;;;;32.08;27.63;;;;;;;;;;5000018;28;25067;-72
2023/12/12 11:05:41;;;;;;;30.63;27.15;;;;;;;;;;5008284;28;25058;-72
2023/12/12 11:08:07;;;;;;;35.70;27.23;;;;;;;;;;5004938;28;25057;-71
2023/12/12 11:10:34;;;;;;;34.30;26.95;;;;;;;;;;5009093;28;25106;-72
2023/12/12 11:13:02;;;;;;;29.88;26.73;;;;;;;;;;5006898;28;25063;-72
2023/12/12 11:15:28;;;;;;;34.63;26.38;;;;;;;;;;5006566;28;25055;-70
2023/12/12 11:17:55;;;;;;;40.03;27.45;;;;;;;;;;5007692;28;25067;-71
2023/12/12 11:20:21;;;;;;;33.47;27.52;;;;;;;;;;5008034;28;25050;-72
2023/12/12 11:22:51;;;;;;;34.15;26.60;;;;;;;;;;5007515;28;25154;-72
2023/12/12 11:25:21;;;;;;;29.65;26.42;;;;;;;;;;5007473;28;25080;-72
2023/12/12 11:27:54;;;;;;;28.65;25.25;;;;;;;;;;5007629;28;25109;-72
2023/12/12 11:30:20;;;;;;;31.52;26.23;;;;;;;;;;5007880;28;25066;-72
2023/12/12 11:32:47;;;;;;;30.60;26.58;;;;;;;;;;5005732;28;25109;-72
2023/12/12 11:35:25;;;;;;;33.28;26.95;;;;;;;;;;5008477;28;25077;-73
2023/12/12 11:37:54;;;;;;;27.80;24.90;;;;;;;;;;5000980;28;25107;-72
2023/12/12 11:40:20;;;;;;;32.60;26.05;;;;;;;;;;5007402;28;25101;-72
2023/12/12 11:42:46;;;;;;;28.63;25.92;;;;;;;;;;5006261;28;25075;-74
2023/12/12 11:45:28;;;;;;;31.02;27.23;;;;;;;;;;5006778;28;25069;-72
2023/12/12 11:47:54;;;;;;;28.98;26.10;;;;;;;;;;5005767;28;25079;-72
2023/12/12 11:50:26;;;;;;;31.13;25.02;;;;;;;;;;5006170;28;25097;-72
2023/12/12 11:52:53;;;;;;;35.50;27.88;;;;;;;;;;5006292;28;25092;-72
2023/12/12 11:55:23;;;;;;;28.98;25.98;;;;;;;;;;5006891;28;25150;-73
2023/12/12 11:57:49;;;;;;;31.20;26.85;;;;;;;;;;5002318;28;25119;-72
2023/12/12 12:00:17;;;;;;;32.40;28.85;;;;;;;;;;5007240;28;25062;-72
2023/12/12 12:02:43;;;;;;;31.23;28.05;;;;;;;;;;5006108;28;25064;-73
2023/12/12 12:05:09;;;;;;;32.13;28.77;;;;;;;;;;5003452;28;25068;-73
2023/12/12 12:07:38;;;;;;;35.83;29.33;;;;;;;;;;5005044;28;25082;-73
2023/12/12 12:10:04;;;;;;;30.30;27.50;;;;;;;;;;5005611;28;25123;-72
2023/12/12 12:12:31;;;;;;;31.77;28.58;;;;;;;;;;5001141;28;25089;-72
2023/12/12 12:15:08;;;;;;;31.92;28.70;;;;;;;;;;5002239;28;25063;-71
2023/12/12 12:17:34;;;;;;;35.38;27.85;;;;;;;;;;5014427;28;25073;-72
2023/12/12 12:20:00;;;;;;;31.40;28.48;;;;;;;;;;5003763;28;25098;-72
2023/12/12 12:22:26;;;;;;;31.40;28.05;;;;;;;;;;5008396;28;25098;-72
2023/12/12 12:24:52;;;;;;;31.60;28.30;;;;;;;;;;5011113;28;25058;-72
2023/12/12 12:27:18;;;;;;;31.95;28.45;;;;;;;;;;5011274;28;25083;-74
2023/12/12 12:30:00;;;;;;;32.00;28.73;;;;;;;;;;5011492;28;25074;-72
2023/12/12 12:32:26;;;;;;;35.00;29.67;;;;;;;;;;5010597;28;25107;-73
2023/12/12 12:35:11;;;;;;;32.17;28.98;;;;;;;;;;5007008;28;25091;-73
2023/12/12 12:37:38;;;;;;;29.00;26.45;;;;;;;;;;5004992;28;25166;-72
2023/12/12 12:40:05;;;;;;;30.85;27.50;;;;;;;;;;5011960;28;25122;-71
2023/12/12 12:42:38;;;;;;;30.27;27.45;;;;;;;;;;5010036;28;25048;-72
2023/12/12 12:45:05;;;;;;;30.27;27.42;;;;;;;;;;5010078;28;25127;-72
2023/12/12 12:47:31;;;;;;;31.38;28.33;;;;;;;;;;5005679;28;25070;-72
2023/12/12 12:49:58;;;;;;;31.67;28.52;;;;;;;;;;5009254;28;25062;-73
2023/12/12 12:52:24;;;;;;;29.60;26.85;;;;;;;;;;5009635;28;25081;-72
2023/12/12 12:54:50;;;;;;;31.02;28.20;;;;;;;;;;5007249;28;25068;-71
2023/12/12 12:57:16;;;;;;;30.30;27.20;;;;;;;;;;5021483;28;25068;-72
2023/12/12 12:59:42;;;;;;;28.80;26.60;;;;;;;;;;5011320;28;25059;-73
2023/12/12 13:02:08;;;;;;;31.58;28.35;;;;;;;;;;5011098;28;25101;-72
2023/12/12 13:04:35;;;;;;;31.30;28.38;;;;;;;;;;5026973;28;25068;-72
2023/12/12 13:07:03;;;;;;;29.88;27.15;;;;;;;;;;5020229;28;25144;-73
2023/12/12 13:09:29;;;;;;;30.00;27.52;;;;;;;;;;5010804;28;25052;-72
2023/12/12 13:11:55;;;;;;;27.60;25.40;;;;;;;;;;5012404;28;25088;-71
2023/12/12 13:14:21;;;;;;;30.52;27.85;;;;;;;;;;5006827;28;25058;-73
2023/12/12 13:16:47;;;;;;;30.35;27.55;;;;;;;;;;5003006;28;25071;-72
2023/12/12 13:19:13;;;;;;;29.98;27.45;;;;;;;;;;5016801;28;25054;-71
2023/12/12 13:21:39;;;;;;;28.70;26.17;;;;;;;;;;5013751;28;25154;-72
2023/12/12 13:24:05;;;;;;;30.27;27.67;;;;;;;;;;5007038;28;25065;-71
2023/12/12 13:26:31;;;;;;;30.75;28.10;;;;;;;;;;5005721;28;25046;-71
2023/12/12 13:28:57;;;;;;;33.08;29.88;;;;;;;;;;5007183;28;25063;-71
2023/12/12 13:31:26;;;;;;;34.83;31.73;;;;;;;;;;5005775;28;25074;-73
2023/12/12 13:33:53;;;;;;;35.90;32.25;;;;;;;;;;5005016;28;25179;-72
2023/12/12 13:36:19;;;;;;;36.97;33.30;;;;;;;;;;5004209;28;25149;-74
2023/12/12 13:38:46;;;;;;;36.67;33.42;;;;;;;;;;5002718;28;25123;-71
2023/12/12 13:41:12;;;;;;;36.58;33.45;;;;;;;;;;5005454;28;25067;-74
2023/12/12 13:43:38;;;;;;;38.05;34.63;;;;;;;;;;5003742;28;25056;-73
2023/12/12 13:46:05;;;;;;;37.08;33.55;;;;;;;;;;5004409;28;25163;-72
2023/12/12 13:48:31;;;;;;;35.63;32.47;;;;;;;;;;5004510;28;25060;-72
2023/12/12 13:50:57;;;;;;;36.53;33.17;;;;;;;;;;5004101;28;25083;-72
2023/12/12 13:53:23;;;;;;;35.53;32.10;;;;;;;;;;5005238;28;25070;-72
2023/12/12 13:55:49;;;;;;;35.85;32.20;;;;;;;;;;5003998;28;25075;-73
2023/12/12 13:58:14;;;;;;;36.28;33.08;;;;;;;;;;5007342;28;25064;-72
2023/12/12 14:00:40;;;;;;;38.65;34.70;;;;;;;;;;5005151;28;25069;-72
2023/12/12 14:03:06;;;;;;;38.35;34.65;;;;;;;;;;5004265;28;25103;-72
2023/12/12 14:05:32;;;;;;;40.25;36.50;;;;;;;;;;5002339;28;25067;-73
2023/12/12 14:07:59;;;;;;;38.03;34.55;;;;;;;;;;5004198;28;25063;-73
2023/12/12 14:10:25;;;;;;;35.00;31.77;;;;;;;;;;5001163;28;25186;-72
2023/12/12 14:12:51;;;;;;;37.63;34.25;;;;;;;;;;5001890;28;25100;-72
2023/12/12 14:15:17;;;;;;;36.45;33.33;;;;;;;;;;5004478;28;25069;-71